createdAt,value
2019-03-10T00:00:36.598Z,4.65
2019-03-10T00:01:39.246Z,4.33
2019-03-10T00:02:41.767Z,2.87
2019-03-10T00:03:44.588Z,8.45
2019-03-10T00:04:47.343Z,4.05
2019-03-10T00:05:50.187Z,7.22
2019-03-10T00:06:52.936Z,6.08
2019-03-10T00:07:55.720Z,4.05
2019-03-10T00:08:58.239Z,4.87
2019-03-10T00:10:03.429Z,3.90
2019-03-10T00:11:06.071Z,5.90
2019-03-10T00:12:09.059Z,4.12
2019-03-10T00:13:11.917Z,6.10
2019-03-10T00:14:14.477Z,4.20
2019-03-10T00:15:17.002Z,3.87
2019-03-10T00:16:19.817Z,5.90
2019-03-10T00:17:22.492Z,5.20
2019-03-10T00:18:25.400Z,6.75
2019-03-10T00:19:29.121Z,7.75
2019-03-10T00:20:31.751Z,4.47
2019-03-10T00:21:34.422Z,4.78
2019-03-10T00:22:36.977Z,3.83
2019-03-10T00:23:39.565Z,3.00
2019-03-10T00:24:42.215Z,3.30
2019-03-10T00:25:44.878Z,6.03
2019-03-10T00:26:47.527Z,2.40
2019-03-10T00:27:50.172Z,4.90
2019-03-10T00:28:52.826Z,5.87
2019-03-10T00:29:55.376Z,3.92
2019-03-10T00:30:57.998Z,4.30
2019-03-10T00:32:00.494Z,2.92
2019-03-10T00:33:03.314Z,8.78
2019-03-10T00:34:07.742Z,6.53
2019-03-10T00:35:10.664Z,5.55
2019-03-10T00:36:13.323Z,6.20
2019-03-10T00:37:16.046Z,5.62
2019-03-10T00:38:18.806Z,4.33
2019-03-10T00:39:45.085Z,4.03
2019-03-10T00:41:28.469Z,9.30
2019-03-10T00:43:07.542Z,12.25
2019-03-10T00:44:48.399Z,7.67
2019-03-10T00:47:47.306Z,2.25
2019-03-10T00:49:58.981Z,3.52
2019-03-10T00:51:54.075Z,9.98
2019-03-10T00:53:00.296Z,4.17
2019-03-10T00:54:03.906Z,4.55
2019-03-10T00:55:06.564Z,5.85
2019-03-10T00:56:09.179Z,3.60
2019-03-10T00:57:11.940Z,4.60
2019-03-10T00:58:14.565Z,5.75
2019-03-10T00:59:17.086Z,9.75
2019-03-10T01:00:19.754Z,5.97
2019-03-10T01:01:22.389Z,3.12
2019-03-10T01:02:24.910Z,4.92
2019-03-10T01:03:27.520Z,4.80
2019-03-10T01:04:30.151Z,2.52
2019-03-10T01:05:33.122Z,4.12
2019-03-10T01:06:36.417Z,3.83
2019-03-10T01:07:39.691Z,5.03
2019-03-10T01:08:43.254Z,10.32
2019-03-10T01:09:46.200Z,2.60
2019-03-10T01:10:49.297Z,4.05
2019-03-10T01:11:52.297Z,4.80
2019-03-10T01:12:55.631Z,4.97
2019-03-10T01:13:59.071Z,4.58
2019-03-10T01:15:02.354Z,4.10
2019-03-10T01:16:05.567Z,3.45
2019-03-10T01:17:09.066Z,5.12
2019-03-10T01:18:13.814Z,5.03
2019-03-10T01:19:18.816Z,3.92
2019-03-10T01:20:22.431Z,4.03
2019-03-10T01:21:26.892Z,5.28
2019-03-10T01:22:32.179Z,3.95
2019-03-10T01:23:35.291Z,4.15
2019-03-10T01:24:38.415Z,5.40
2019-03-10T01:25:43.401Z,6.92
2019-03-10T01:26:46.862Z,2.85
2019-03-10T01:27:50.264Z,3.58
2019-03-10T01:28:53.000Z,6.58
2019-03-10T01:29:56.599Z,5.80
2019-03-10T01:31:09.336Z,9.63
2019-03-10T01:32:27.726Z,4.35
2019-03-10T01:34:21.551Z,4.60
2019-03-10T01:35:28.173Z,10.28
2019-03-10T01:36:30.176Z,5.22
2019-03-10T01:37:33.227Z,6.55
2019-03-10T01:38:35.960Z,10.78
2019-03-10T01:39:41.315Z,4.08
2019-03-10T01:40:44.231Z,6.58
2019-03-10T01:41:47.382Z,9.05
2019-03-10T01:42:50.033Z,12.18
2019-03-10T01:43:53.370Z,5.87
2019-03-10T01:44:57.544Z,5.45
2019-03-10T01:46:00.905Z,9.35
2019-03-10T01:47:03.776Z,5.20
2019-03-10T01:48:07.220Z,6.70
2019-03-10T01:49:11.862Z,8.83
2019-03-10T01:50:14.730Z,8.53
2019-03-10T01:51:17.369Z,9.95
2019-03-10T01:52:19.886Z,5.67
2019-03-10T01:53:25.872Z,3.37
2019-03-10T01:54:28.882Z,5.78
2019-03-10T01:55:31.651Z,3.85
2019-03-10T01:56:34.244Z,5.60
2019-03-10T01:57:38.596Z,4.12
2019-03-10T01:58:41.212Z,5.58
2019-03-10T01:59:43.799Z,6.25
2019-03-10T02:00:46.346Z,7.25
2019-03-10T02:01:49.125Z,5.75
2019-03-10T02:02:51.748Z,9.60
2019-03-10T02:03:54.271Z,3.40
2019-03-10T02:04:56.920Z,11.38
2019-03-10T02:06:01.425Z,4.08
2019-03-10T02:07:04.267Z,6.53
2019-03-10T02:08:06.888Z,3.58
2019-03-10T02:09:11.229Z,7.47
2019-03-10T02:10:14.988Z,7.00
2019-03-10T02:11:17.660Z,6.03
2019-03-10T02:12:20.221Z,5.22
2019-03-10T02:13:23.142Z,3.62
2019-03-10T02:14:25.781Z,13.50
2019-03-10T02:15:28.408Z,6.25
2019-03-10T02:16:31.187Z,2.95
2019-03-10T02:17:33.882Z,4.87
2019-03-10T02:18:36.491Z,5.25
2019-03-10T02:19:39.134Z,6.72
2019-03-10T02:20:41.780Z,4.33
2019-03-10T02:21:44.480Z,6.55
2019-03-10T02:22:47.134Z,11.25
2019-03-10T02:23:49.946Z,7.15
2019-03-10T02:24:52.684Z,5.58
2019-03-10T02:25:55.303Z,3.58
2019-03-10T02:26:57.923Z,6.95
2019-03-10T02:28:00.576Z,10.55
2019-03-10T02:29:03.343Z,3.60
2019-03-10T02:30:07.271Z,7.00
2019-03-10T02:31:09.933Z,4.10
2019-03-10T02:32:12.532Z,10.48
2019-03-10T02:33:15.283Z,3.62
2019-03-10T02:34:17.922Z,4.33
2019-03-10T02:35:20.614Z,6.15
2019-03-10T02:36:23.393Z,10.25
2019-03-10T02:37:25.955Z,9.58
2019-03-10T02:38:28.612Z,8.53
2019-03-10T02:39:31.168Z,6.83
2019-03-10T02:40:34.262Z,4.62
2019-03-10T02:41:36.829Z,8.05
2019-03-10T02:42:39.473Z,11.03
2019-03-10T02:43:43.787Z,9.38
2019-03-10T02:44:46.682Z,10.10
2019-03-10T02:45:49.242Z,6.70
2019-03-10T02:46:51.847Z,5.00
2019-03-10T02:47:54.683Z,3.62
2019-03-10T02:48:57.400Z,6.70
2019-03-10T02:50:00.077Z,10.70
2019-03-10T02:51:03.007Z,8.05
2019-03-10T02:52:05.544Z,7.67
2019-03-10T02:53:08.057Z,5.08
2019-03-10T02:54:10.721Z,7.70
2019-03-10T02:55:13.688Z,12.65
2019-03-10T02:56:16.516Z,6.75
2019-03-10T02:57:19.114Z,10.35
2019-03-10T02:58:21.822Z,10.40
2019-03-10T02:59:24.469Z,7.87
2019-03-10T03:00:27.015Z,9.30
2019-03-10T03:01:29.672Z,4.80
2019-03-10T03:02:32.233Z,5.75
2019-03-10T03:03:34.981Z,4.80
2019-03-10T03:04:37.547Z,9.70
2019-03-10T03:05:40.180Z,5.47
2019-03-10T03:06:43.090Z,6.03
2019-03-10T03:07:45.625Z,10.48
2019-03-10T03:08:48.324Z,6.65
2019-03-10T03:09:51.139Z,15.35
2019-03-10T03:10:53.991Z,8.15
2019-03-10T03:11:56.723Z,10.13
2019-03-10T03:13:01.290Z,11.65
2019-03-10T03:14:03.929Z,13.22
2019-03-10T03:15:07.061Z,5.58
2019-03-10T03:16:09.590Z,15.72
2019-03-10T03:17:12.199Z,5.42
2019-03-10T03:18:14.744Z,6.75
2019-03-10T03:19:17.364Z,16.30
2019-03-10T03:20:20.069Z,4.75
2019-03-10T03:21:22.684Z,9.73
2019-03-10T03:22:25.373Z,6.22
2019-03-10T03:23:27.909Z,10.05
2019-03-10T03:24:30.649Z,7.25
2019-03-10T03:25:34.621Z,10.30
2019-03-10T03:26:37.348Z,7.83
2019-03-10T03:27:40.089Z,9.80
2019-03-10T03:28:42.710Z,6.35
2019-03-10T03:29:45.391Z,10.43
2019-03-10T03:30:48.034Z,8.28
2019-03-10T03:31:50.641Z,5.55
2019-03-10T03:32:53.409Z,8.23
2019-03-10T03:33:55.949Z,12.20
2019-03-10T03:34:58.651Z,9.48
2019-03-10T03:36:12.223Z,5.60
2019-03-10T03:37:17.482Z,10.68
2019-03-10T03:38:39.923Z,16.60
2019-03-10T03:39:45.923Z,7.67
2019-03-10T03:40:53.202Z,9.73
2019-03-10T03:41:56.097Z,12.33
2019-03-10T03:42:58.735Z,9.00
2019-03-10T03:44:01.327Z,6.95
2019-03-10T03:45:05.061Z,22.50
2019-03-10T03:46:07.791Z,15.90
2019-03-10T03:47:10.521Z,11.38
2019-03-10T03:48:13.064Z,7.67
2019-03-10T03:49:15.640Z,8.85
2019-03-10T03:50:18.265Z,14.60
2019-03-10T03:51:21.008Z,9.60
2019-03-10T03:52:23.790Z,13.62
2019-03-10T03:53:26.317Z,7.72
2019-03-10T03:54:28.987Z,12.20
2019-03-10T03:55:33.337Z,11.12
2019-03-10T03:56:35.964Z,12.30
2019-03-10T03:57:38.530Z,10.18
2019-03-10T03:58:42.178Z,8.25
2019-03-10T03:59:44.905Z,7.28
2019-03-10T04:00:50.245Z,9.23
2019-03-10T04:02:00.635Z,21.75
2019-03-10T04:03:03.630Z,7.95
2019-03-10T04:04:06.144Z,13.43
2019-03-10T04:05:09.326Z,6.03
2019-03-10T04:06:12.003Z,8.58
2019-03-10T04:07:14.730Z,13.05
2019-03-10T04:08:17.275Z,19.42
2019-03-10T04:09:19.895Z,6.58
2019-03-10T04:10:22.436Z,14.90
2019-03-10T04:11:25.221Z,11.18
2019-03-10T04:12:27.727Z,8.65
2019-03-10T04:13:30.313Z,9.38
2019-03-10T04:14:32.926Z,16.45
2019-03-10T04:15:35.833Z,11.40
2019-03-10T04:16:38.345Z,12.10
2019-03-10T04:17:41.008Z,6.97
2019-03-10T04:18:43.799Z,12.78
2019-03-10T04:19:46.542Z,8.80
2019-03-10T04:20:50.452Z,8.90
2019-03-10T04:21:53.072Z,9.70
2019-03-10T04:22:55.746Z,16.40
2019-03-10T04:23:58.368Z,9.43
2019-03-10T04:25:01.156Z,9.60
2019-03-10T04:26:03.788Z,15.95
2019-03-10T04:27:06.394Z,9.13
2019-03-10T04:28:10.050Z,16.17
2019-03-10T04:29:12.787Z,8.13
2019-03-10T04:30:15.335Z,6.45
2019-03-10T04:31:18.027Z,10.75
2019-03-10T04:32:20.834Z,11.50
2019-03-10T04:33:23.565Z,10.63
2019-03-10T04:34:26.313Z,8.35
2019-03-10T04:35:29.126Z,11.15
2019-03-10T04:36:31.944Z,14.40
2019-03-10T04:37:34.572Z,11.93
2019-03-10T04:38:37.206Z,10.25
2019-03-10T04:39:39.924Z,10.72
2019-03-10T04:40:42.629Z,8.75
2019-03-10T04:41:45.286Z,12.60
2019-03-10T04:42:47.941Z,11.75
2019-03-10T04:43:50.633Z,10.72
2019-03-10T04:44:53.268Z,8.23
2019-03-10T04:45:56.119Z,13.00
2019-03-10T04:46:59.074Z,5.45
2019-03-10T04:48:01.720Z,10.43
2019-03-10T04:49:04.509Z,9.43
2019-03-10T04:50:07.273Z,7.30
2019-03-10T04:51:12.289Z,10.38
2019-03-10T04:52:16.083Z,11.88
2019-03-10T04:53:18.652Z,9.28
2019-03-10T04:54:46.671Z,13.32
2019-03-10T04:55:57.591Z,7.20
2019-03-10T04:57:06.274Z,3.12
2019-03-10T04:58:12.663Z,15.40
2019-03-10T04:59:15.210Z,11.33
2019-03-10T05:00:17.841Z,11.20
2019-03-10T05:01:20.958Z,7.22
2019-03-10T05:02:23.940Z,9.98
2019-03-10T05:03:27.684Z,10.25
2019-03-10T05:04:31.635Z,6.50
2019-03-10T05:05:34.631Z,7.53
2019-03-10T05:06:37.174Z,8.38
2019-03-10T05:07:39.913Z,9.88
2019-03-10T05:08:42.458Z,9.25
2019-03-10T05:09:45.203Z,11.93
2019-03-10T05:10:48.037Z,11.55
2019-03-10T05:11:50.563Z,10.03
2019-03-10T05:12:53.157Z,10.95
2019-03-10T05:13:55.886Z,6.85
2019-03-10T05:14:58.513Z,12.13
2019-03-10T05:16:01.067Z,8.73
2019-03-10T05:17:03.713Z,7.83
2019-03-10T05:18:06.371Z,9.33
2019-03-10T05:19:09.050Z,14.90
2019-03-10T05:20:11.642Z,10.35
2019-03-10T05:21:14.384Z,11.10
2019-03-10T05:22:16.912Z,6.85
2019-03-10T05:23:41.943Z,12.05
2019-03-10T05:24:44.615Z,14.65
2019-03-10T05:25:47.170Z,6.92
2019-03-10T05:26:49.715Z,10.48
2019-03-10T05:27:52.339Z,6.80
2019-03-10T05:28:54.975Z,8.53
2019-03-10T05:29:57.736Z,9.48
2019-03-10T05:31:00.428Z,7.15
2019-03-10T05:32:02.972Z,7.30
2019-03-10T05:33:05.857Z,11.12
2019-03-10T05:34:08.365Z,7.97
2019-03-10T05:35:10.872Z,6.17
2019-03-10T05:36:13.536Z,10.95
2019-03-10T05:37:16.094Z,12.37
2019-03-10T05:38:20.437Z,16.52
2019-03-10T05:39:23.122Z,11.68
2019-03-10T05:40:26.101Z,7.78
2019-03-10T05:41:28.624Z,7.08
2019-03-10T05:42:31.301Z,10.70
2019-03-10T05:43:34.039Z,6.83
2019-03-10T05:44:37.942Z,9.25
2019-03-10T05:45:40.453Z,6.87
2019-03-10T05:46:43.128Z,12.18
2019-03-10T05:47:45.673Z,9.48
2019-03-10T05:48:48.272Z,11.83
2019-03-10T05:49:51.080Z,15.90
2019-03-10T05:50:53.739Z,13.08
2019-03-10T05:51:56.354Z,9.75
2019-03-10T05:53:00.806Z,9.25
2019-03-10T05:54:04.152Z,7.83
2019-03-10T05:55:06.794Z,12.40
2019-03-10T05:56:09.563Z,7.08
2019-03-10T05:57:12.184Z,6.62
2019-03-10T05:58:14.788Z,10.60
2019-03-10T05:59:17.543Z,8.03
2019-03-10T06:00:20.119Z,8.05
2019-03-10T06:01:22.892Z,15.50
2019-03-10T06:02:25.476Z,8.55
2019-03-10T06:03:28.209Z,8.98
2019-03-10T06:04:30.720Z,9.95
2019-03-10T06:05:33.307Z,7.65
2019-03-10T06:06:35.949Z,12.58
2019-03-10T06:07:38.685Z,8.73
2019-03-10T06:08:41.353Z,6.03
2019-03-10T06:09:43.990Z,7.22
2019-03-10T06:10:47.711Z,8.90
2019-03-10T06:11:50.367Z,7.58
2019-03-10T06:12:53.310Z,7.00
2019-03-10T06:13:55.970Z,11.35
2019-03-10T06:14:58.474Z,8.03
2019-03-10T06:16:00.978Z,12.35
2019-03-10T06:17:03.640Z,4.42
2019-03-10T06:18:13.568Z,8.38
2019-03-10T06:19:10.923Z,6.75
2019-03-10T06:20:13.810Z,4.85
2019-03-10T06:21:16.562Z,7.70
2019-03-10T06:22:19.127Z,8.05
2019-03-10T06:23:21.744Z,8.43
2019-03-10T06:24:24.303Z,5.87
2019-03-10T06:25:26.878Z,5.83
2019-03-10T06:26:29.416Z,10.40
2019-03-10T06:27:32.164Z,10.03
2019-03-10T06:28:34.717Z,12.63
2019-03-10T06:29:37.353Z,6.67
2019-03-10T06:30:40.001Z,7.10
2019-03-10T06:31:42.728Z,3.83
2019-03-10T06:32:45.347Z,10.30
2019-03-10T06:33:47.883Z,9.10
2019-03-10T06:34:50.518Z,4.75
2019-03-10T06:35:53.499Z,7.70
2019-03-10T06:36:56.272Z,6.45
2019-03-10T06:37:59.045Z,8.13
2019-03-10T06:39:01.583Z,8.70
2019-03-10T06:40:04.996Z,5.75
2019-03-10T06:41:07.678Z,7.80
2019-03-10T06:42:10.495Z,9.13
2019-03-10T06:43:13.091Z,9.05
2019-03-10T06:44:15.741Z,6.75
2019-03-10T06:45:20.044Z,4.37
2019-03-10T06:46:22.726Z,9.65
2019-03-10T06:47:25.438Z,4.53
2019-03-10T06:48:28.154Z,9.08
2019-03-10T06:49:30.706Z,6.40
2019-03-10T06:50:33.445Z,6.97
2019-03-10T06:51:36.202Z,3.20
2019-03-10T06:52:38.954Z,8.30
2019-03-10T06:53:41.673Z,9.50
2019-03-10T06:54:44.715Z,8.90
2019-03-10T06:55:47.360Z,8.43
2019-03-10T06:56:51.186Z,8.95
2019-03-10T06:57:53.840Z,7.00
2019-03-10T06:58:56.523Z,4.78
2019-03-10T06:59:59.242Z,5.25
2019-03-10T07:01:01.819Z,8.13
2019-03-10T07:02:04.441Z,6.95
2019-03-10T07:03:06.969Z,7.33
2019-03-10T07:04:09.492Z,8.40
2019-03-10T07:05:12.144Z,6.12
2019-03-10T07:06:14.686Z,7.25
2019-03-10T07:07:17.306Z,5.60
2019-03-10T07:08:20.010Z,9.15
2019-03-10T07:09:22.720Z,5.33
2019-03-10T07:10:25.493Z,6.80
2019-03-10T07:11:28.246Z,10.40
2019-03-10T07:12:31.034Z,6.62
2019-03-10T07:13:33.657Z,7.78
2019-03-10T07:14:36.225Z,3.62
2019-03-10T07:15:38.813Z,5.53
2019-03-10T07:16:41.535Z,6.67
2019-03-10T07:17:44.175Z,7.70
2019-03-10T07:18:46.848Z,7.72
2019-03-10T07:19:49.501Z,5.85
2019-03-10T07:20:52.142Z,4.65
2019-03-10T07:21:54.790Z,6.62
2019-03-10T07:22:57.458Z,8.85
2019-03-10T07:24:00.224Z,8.98
2019-03-10T07:25:04.504Z,6.28
2019-03-10T07:26:07.818Z,9.95
2019-03-10T07:27:10.490Z,10.80
2019-03-10T07:28:20.948Z,6.35
2019-03-10T07:29:26.399Z,6.40
2019-03-10T07:30:31.848Z,12.63
2019-03-10T07:31:48.138Z,16.32
2019-03-10T07:33:13.330Z,6.03
2019-03-10T07:34:29.749Z,6.08
2019-03-10T07:35:50.301Z,6.33
2019-03-10T07:38:50.904Z,7.03
2019-03-10T07:40:11.658Z,7.42
2019-03-10T07:41:52.446Z,7.45
2019-03-10T07:43:10.632Z,9.60
2019-03-10T07:44:31.012Z,9.13
2019-03-10T07:45:46.646Z,7.83
2019-03-10T07:47:08.398Z,8.55
2019-03-10T07:48:29.010Z,6.97
2019-03-10T07:51:06.786Z,8.53
2019-03-10T07:52:21.919Z,5.28
2019-03-10T07:53:44.026Z,6.92
2019-03-10T07:54:53.684Z,5.12
2019-03-10T07:56:15.705Z,5.55
2019-03-10T07:57:41.118Z,4.45
2019-03-10T07:59:12.411Z,5.60
2019-03-10T08:00:36.936Z,7.17
2019-03-10T08:01:59.106Z,3.95
2019-03-10T08:03:30.396Z,4.47
2019-03-10T08:04:55.303Z,3.77
2019-03-10T08:06:07.084Z,3.25
2019-03-10T08:07:27.721Z,2.80
2019-03-10T08:08:56.030Z,4.45
2019-03-10T08:10:17.135Z,4.65
2019-03-10T08:11:25.851Z,4.30
2019-03-10T08:12:43.606Z,3.17
2019-03-10T08:14:12.715Z,2.77
2019-03-10T08:15:40.579Z,4.40
2019-03-10T08:17:08.706Z,2.75
2019-03-10T08:18:39.874Z,3.72
2019-03-10T08:20:11.183Z,3.30
2019-03-10T08:21:22.137Z,1.55
2019-03-10T08:22:46.009Z,2.87
2019-03-10T08:24:23.155Z,2.35
2019-03-10T08:25:44.338Z,2.40
2019-03-10T08:27:06.679Z,3.58
2019-03-10T08:28:34.497Z,2.15
2019-03-10T08:29:55.363Z,4.40
2019-03-10T08:31:16.089Z,1.72
2019-03-10T08:32:47.713Z,3.98
2019-03-10T08:34:08.867Z,3.85
2019-03-10T08:35:24.338Z,1.72
2019-03-10T08:36:52.182Z,1.87
2019-03-10T08:38:17.304Z,1.80
2019-03-10T08:39:29.317Z,3.15
2019-03-10T08:40:40.547Z,3.33
2019-03-10T08:41:51.141Z,0.90
2019-03-10T08:44:40.135Z,6.53
2019-03-10T08:45:52.665Z,2.33
2019-03-10T08:47:27.007Z,1.62
2019-03-10T08:48:37.875Z,3.22
2019-03-10T08:49:54.255Z,4.30
2019-03-10T08:51:05.967Z,1.72
2019-03-10T08:52:13.229Z,1.65
2019-03-10T08:53:28.085Z,4.17
2019-03-10T08:54:34.984Z,3.35
2019-03-10T08:56:06.175Z,3.40
2019-03-10T08:57:25.812Z,0.95
2019-03-10T08:58:53.711Z,2.70
2019-03-10T09:00:03.608Z,1.47
2019-03-10T09:01:43.858Z,1.40
2019-03-10T09:03:11.446Z,1.05
2019-03-10T09:04:32.540Z,0.98
2019-03-10T09:05:51.316Z,0.95
2019-03-10T09:07:12.129Z,1.62
2019-03-10T09:08:48.156Z,1.17
2019-03-10T09:10:10.337Z,1.27
2019-03-10T09:11:39.482Z,1.80
2019-03-10T09:13:01.479Z,2.10
2019-03-10T09:14:20.248Z,1.37
2019-03-10T09:15:51.601Z,0.33
2019-03-10T09:17:03.676Z,0.60
2019-03-10T09:18:21.094Z,0.60
2019-03-10T09:19:43.418Z,1.85
2019-03-10T09:20:55.307Z,2.15
2019-03-10T09:22:06.617Z,2.42
2019-03-10T09:23:43.689Z,1.20
2019-03-10T09:25:06.111Z,1.98
2019-03-10T09:26:16.064Z,1.12
2019-03-10T09:27:53.455Z,2.22
2019-03-10T09:29:07.921Z,1.62
2019-03-10T09:30:28.795Z,3.35
2019-03-10T09:31:44.762Z,0.95
2019-03-10T09:32:57.854Z,0.98
2019-03-10T09:34:08.842Z,1.10
2019-03-10T09:35:25.124Z,0.42
2019-03-10T09:36:47.448Z,1.37
2019-03-10T09:38:08.169Z,2.02
2019-03-10T09:39:36.092Z,2.05
2019-03-10T09:40:50.983Z,1.12
2019-03-10T09:42:18.827Z,1.20
2019-03-10T09:43:51.154Z,0.75
2019-03-10T09:45:16.020Z,1.35
2019-03-10T09:46:31.378Z,0.70
2019-03-10T09:47:50.167Z,0.50
2019-03-10T09:49:14.923Z,0.40
2019-03-10T09:50:41.012Z,0.45
2019-03-10T09:52:04.714Z,1.65
2019-03-10T09:53:29.517Z,0.35
2019-03-10T09:55:01.300Z,0.65
2019-03-10T09:56:15.014Z,0.45
2019-03-10T09:57:39.829Z,0.20
2019-03-10T09:58:52.089Z,0.23
2019-03-10T10:00:12.614Z,0.20
2019-03-10T10:01:35.515Z,0.20
2019-03-10T10:02:51.530Z,0.50
2019-03-10T10:04:06.241Z,1.00
2019-03-10T10:05:40.494Z,0.57
2019-03-10T10:06:52.196Z,0.50
2019-03-10T10:08:05.673Z,0.23
2019-03-10T10:09:20.737Z,0.85
2019-03-10T10:10:36.606Z,0.50
2019-03-10T10:11:45.882Z,0.85
2019-03-10T10:13:06.495Z,0.82
2019-03-10T10:15:47.313Z,2.58
2019-03-10T10:18:15.568Z,0.35
2019-03-10T10:19:27.850Z,4.95
2019-03-10T10:20:57.948Z,0.55
2019-03-10T10:22:28.895Z,1.02
2019-03-10T10:24:03.178Z,0.72
2019-03-10T10:25:11.757Z,0.30
2019-03-10T10:26:33.033Z,1.55
2019-03-10T10:27:53.978Z,0.62
2019-03-10T10:29:14.918Z,1.10
2019-03-10T10:30:38.365Z,0.47
2019-03-10T10:31:53.041Z,0.60
2019-03-10T10:33:17.833Z,1.25
2019-03-10T10:34:46.523Z,1.02
2019-03-10T10:36:04.155Z,1.02
2019-03-10T10:37:19.271Z,1.02
2019-03-10T10:38:40.051Z,1.17
2019-03-10T10:40:05.063Z,1.10
2019-03-10T10:41:21.275Z,1.30
2019-03-10T10:42:49.696Z,0.72
2019-03-10T10:44:10.534Z,0.25
2019-03-10T10:45:24.810Z,3.50
2019-03-10T10:46:40.155Z,1.57
2019-03-10T10:48:07.861Z,0.75
2019-03-10T10:49:23.925Z,0.88
2019-03-10T10:51:01.098Z,0.98
2019-03-10T10:52:12.509Z,1.00
2019-03-10T10:53:26.493Z,1.75
2019-03-10T10:54:53.749Z,1.20
2019-03-10T10:56:19.039Z,1.07
2019-03-10T10:57:44.208Z,0.35
2019-03-10T10:59:13.471Z,1.37
2019-03-10T11:00:38.435Z,2.87
2019-03-10T11:01:52.762Z,0.40
2019-03-10T11:03:23.764Z,0.68
2019-03-10T11:04:48.830Z,1.00
2019-03-10T11:06:13.699Z,1.42
2019-03-10T11:07:25.905Z,1.10
2019-03-10T11:08:50.736Z,1.20
2019-03-10T11:10:15.466Z,4.67
2019-03-10T11:11:56.309Z,1.70
2019-03-10T11:13:36.795Z,0.98
2019-03-10T11:14:57.970Z,1.55
2019-03-10T11:16:23.154Z,2.52
2019-03-10T11:17:46.419Z,0.40
2019-03-10T11:18:55.582Z,1.30
2019-03-10T11:20:13.371Z,1.85
2019-03-10T11:21:44.298Z,1.55
2019-03-10T11:23:12.468Z,1.07
2019-03-10T11:24:40.765Z,1.47
2019-03-10T11:25:50.454Z,1.15
2019-03-10T11:27:11.197Z,1.25
2019-03-10T11:28:33.378Z,1.87
2019-03-10T11:30:01.479Z,1.57
2019-03-10T11:31:17.346Z,1.92
2019-03-10T11:32:53.403Z,2.65
2019-03-10T11:34:06.781Z,3.98
2019-03-10T11:35:19.916Z,1.47
2019-03-10T11:36:47.765Z,2.45
2019-03-10T11:38:10.046Z,1.62
2019-03-10T11:39:30.902Z,1.32
2019-03-10T11:40:56.210Z,1.30
2019-03-10T11:42:15.619Z,1.25
2019-03-10T11:43:37.637Z,4.22
2019-03-10T11:44:53.333Z,2.65
2019-03-10T11:46:30.637Z,1.20
2019-03-10T11:47:45.391Z,2.22
2019-03-10T11:49:06.270Z,3.10
2019-03-10T11:50:31.262Z,2.20
2019-03-10T11:51:53.396Z,2.47
2019-03-10T11:53:19.268Z,3.22
2019-03-10T11:54:34.501Z,1.62
2019-03-10T11:56:05.573Z,2.58
2019-03-10T11:57:18.003Z,1.50
2019-03-10T11:58:45.858Z,2.87
2019-03-10T12:00:07.918Z,2.12
2019-03-10T12:01:36.044Z,1.55
2019-03-10T12:02:58.233Z,1.57
2019-03-10T12:04:29.410Z,1.60
2019-03-10T12:05:45.087Z,3.15
2019-03-10T12:06:54.697Z,2.12
2019-03-10T12:08:02.734Z,3.73
2019-03-10T12:09:18.599Z,1.80
2019-03-10T12:10:21.674Z,2.15
2019-03-10T12:11:27.706Z,3.25
2019-03-10T12:12:30.251Z,3.67
2019-03-10T12:13:33.033Z,1.67
2019-03-10T12:14:37.430Z,2.10
2019-03-10T12:15:40.135Z,2.27
2019-03-10T12:16:42.758Z,3.85
2019-03-10T12:17:45.367Z,1.80
2019-03-10T12:18:47.917Z,3.50
2019-03-10T12:19:50.771Z,2.70
2019-03-10T12:20:53.451Z,3.95
2019-03-10T12:21:57.934Z,2.98
2019-03-10T12:23:00.498Z,2.20
2019-03-10T12:24:03.186Z,2.65
2019-03-10T12:25:06.328Z,3.30
2019-03-10T12:26:09.059Z,4.05
2019-03-10T12:27:11.710Z,1.65
2019-03-10T12:28:14.370Z,2.00
2019-03-10T12:29:16.942Z,2.40
2019-03-10T12:30:19.502Z,3.15
2019-03-10T12:31:22.197Z,2.47
2019-03-10T12:32:24.834Z,3.20
2019-03-10T12:33:27.495Z,3.33
2019-03-10T12:34:30.176Z,3.50
2019-03-10T12:35:34.736Z,3.12
2019-03-10T12:36:37.899Z,3.52
2019-03-10T12:37:40.530Z,3.35
2019-03-10T12:38:43.107Z,2.35
2019-03-10T12:39:45.704Z,2.00
2019-03-10T12:40:48.440Z,2.60
2019-03-10T12:41:58.437Z,4.03
2019-03-10T12:42:55.621Z,2.83
2019-03-10T12:43:58.503Z,3.35
2019-03-10T12:45:01.205Z,3.45
2019-03-10T12:47:19.836Z,5.25
2019-03-10T12:48:22.408Z,4.30
2019-03-10T12:49:25.214Z,2.75
2019-03-10T12:50:27.818Z,4.92
2019-03-10T12:51:30.485Z,3.98
2019-03-10T12:52:33.126Z,3.22
2019-03-10T12:53:35.920Z,3.35
2019-03-10T12:54:38.482Z,3.90
2019-03-10T12:55:41.179Z,5.22
2019-03-10T12:56:43.838Z,4.33
2019-03-10T12:57:46.486Z,16.93
2019-03-10T12:58:49.137Z,4.78
2019-03-10T12:59:51.882Z,5.10
2019-03-10T13:01:05.336Z,3.27
2019-03-10T13:01:59.293Z,5.33
2019-03-10T13:03:01.852Z,3.42
2019-03-10T13:04:04.488Z,4.28
2019-03-10T13:05:08.152Z,5.00
2019-03-10T13:06:10.739Z,4.33
2019-03-10T13:07:13.468Z,3.72
2019-03-10T13:08:16.104Z,4.25
2019-03-10T13:09:18.772Z,5.12
2019-03-10T13:10:21.378Z,2.45
2019-03-10T13:11:24.079Z,3.77
2019-03-10T13:12:26.850Z,4.33
2019-03-10T13:13:29.666Z,8.10
2019-03-10T13:14:32.295Z,6.30
2019-03-10T13:15:35.190Z,4.03
2019-03-10T13:16:37.872Z,6.62
2019-03-10T13:17:40.582Z,2.15
2019-03-10T13:18:43.170Z,6.90
2019-03-10T13:19:45.692Z,4.78
2019-03-10T13:20:48.281Z,8.55
2019-03-10T13:21:52.024Z,4.83
2019-03-10T13:22:54.562Z,3.72
2019-03-10T13:23:57.223Z,2.15
2019-03-10T13:24:59.964Z,3.35
2019-03-10T13:26:02.744Z,8.05
2019-03-10T13:27:05.293Z,3.08
2019-03-10T13:28:07.850Z,2.85
2019-03-10T13:29:11.676Z,6.05
2019-03-10T13:30:14.760Z,3.08
2019-03-10T13:31:17.323Z,4.08
2019-03-10T13:32:20.263Z,4.15
2019-03-10T13:33:23.052Z,6.58
2019-03-10T13:34:25.644Z,5.28
2019-03-10T13:35:28.211Z,5.00
2019-03-10T13:36:30.826Z,3.42
2019-03-10T13:37:33.720Z,4.03
2019-03-10T13:38:36.675Z,10.25
2019-03-10T13:39:39.640Z,3.00
2019-03-10T13:40:42.308Z,2.98
2019-03-10T13:41:44.903Z,4.60
2019-03-10T13:42:47.516Z,6.17
2019-03-10T13:43:50.144Z,6.17
2019-03-10T13:44:52.848Z,3.00
2019-03-10T13:45:55.437Z,7.67
2019-03-10T13:46:58.240Z,5.37
2019-03-10T13:48:01.150Z,3.62
2019-03-10T13:49:03.798Z,3.25
2019-03-10T13:50:08.182Z,4.62
2019-03-10T13:51:10.914Z,5.05
2019-03-10T13:52:13.498Z,3.52
2019-03-10T13:53:16.223Z,5.20
2019-03-10T13:54:18.785Z,6.75
2019-03-10T13:55:21.352Z,3.98
2019-03-10T13:56:24.216Z,9.28
2019-03-10T13:57:26.900Z,4.80
2019-03-10T13:58:29.542Z,3.12
2019-03-10T13:59:32.090Z,2.42
2019-03-10T14:00:34.863Z,3.83
2019-03-10T14:01:37.571Z,2.90
2019-03-10T14:02:40.171Z,5.28
2019-03-10T14:03:42.852Z,6.80
2019-03-10T14:04:45.594Z,5.30
2019-03-10T14:05:48.136Z,4.45
2019-03-10T14:06:50.701Z,3.90
2019-03-10T14:07:53.307Z,5.72
2019-03-10T14:08:55.966Z,3.58
2019-03-10T14:09:58.503Z,6.00
2019-03-10T14:11:01.044Z,5.35
2019-03-10T14:12:03.655Z,3.67
2019-03-10T14:13:06.348Z,4.00
2019-03-10T14:14:08.984Z,4.15
2019-03-10T14:15:12.113Z,4.70
2019-03-10T14:16:16.021Z,7.37
2019-03-10T14:17:18.556Z,8.83
2019-03-10T14:18:21.117Z,2.70
2019-03-10T14:19:23.790Z,5.67
2019-03-10T14:20:26.829Z,1.77
2019-03-10T14:21:32.105Z,4.45
2019-03-10T14:22:35.895Z,1.40
2019-03-10T14:23:38.547Z,5.25
2019-03-10T14:24:41.381Z,1.57
2019-03-10T14:25:44.065Z,2.65
2019-03-10T14:26:46.769Z,1.85
2019-03-10T14:27:49.444Z,3.22
2019-03-10T14:28:52.010Z,2.90
2019-03-10T14:29:54.685Z,5.72
2019-03-10T14:30:57.436Z,2.37
2019-03-10T14:32:00.084Z,6.67
2019-03-10T14:33:02.850Z,2.30
2019-03-10T14:34:05.385Z,5.47
2019-03-10T14:35:08.179Z,2.58
2019-03-10T14:36:11.008Z,2.92
2019-03-10T14:37:13.587Z,2.83
2019-03-10T14:38:16.232Z,5.53
2019-03-10T14:39:19.020Z,2.87
2019-03-10T14:40:21.586Z,2.40
2019-03-10T14:41:24.187Z,1.65
2019-03-10T14:42:27.159Z,5.33
2019-03-10T14:43:29.999Z,2.83
2019-03-10T14:44:34.928Z,2.27
2019-03-10T14:45:37.181Z,7.30
2019-03-10T14:46:39.700Z,4.65
2019-03-10T14:47:42.380Z,3.15
2019-03-10T14:48:44.914Z,4.15
2019-03-10T14:49:47.433Z,3.10
2019-03-10T14:50:50.258Z,5.53
2019-03-10T14:51:53.029Z,3.37
2019-03-10T14:52:55.596Z,5.30
2019-03-10T14:53:58.407Z,6.37
2019-03-10T14:55:00.953Z,2.70
2019-03-10T14:56:03.575Z,5.53
2019-03-10T14:57:06.713Z,3.05
2019-03-10T14:58:09.360Z,7.47
2019-03-10T14:59:11.898Z,4.22
2019-03-10T15:00:17.855Z,6.17
2019-03-10T15:01:22.339Z,3.35
2019-03-10T15:02:27.025Z,3.50
2019-03-10T15:03:29.582Z,1.98
2019-03-10T15:04:32.394Z,4.25
2019-03-10T15:05:35.134Z,3.37
2019-03-10T15:06:38.644Z,3.90
2019-03-10T15:07:41.649Z,9.03
2019-03-10T15:08:46.357Z,5.87
2019-03-10T15:09:48.858Z,11.25
2019-03-10T15:10:51.549Z,2.27
2019-03-10T15:11:54.645Z,5.95
2019-03-10T15:12:57.267Z,3.42